Austin, TX (78746)

16:25 CDT le 24 août 2016 (GMT -0500)
Camelot | | Change Station

Alt. 925 ft 30.29 °N, 97.83 °W | Updated 7 seconds ago

Partly Cloudy
Partiellement nuageux
90.9 ° F
Paraît 98 ° F
N
0.0
Vent Variable Vent de SSO
Gusts 8.0 mph

Aujourd'hui
Haut(e) -- | Bas -- ° F
--% Risque de précip.
Hier
Haut(e) -- | Bas -- ° F
Precip. -- pouce
Pression 30.03 pouce
Visibilité 10.0 Miles terrestres
Nuages Peu 5000 ft
indice de chaleur 98 ° F
Point de rosée 72 ° F
Humidité 54%
Précipitations 0.00 pouce
Profondeur de la couche neigeuse Non disponible.
7:03 AM 8:02 PM
Lune gibbeuse décroissante, 53% visible
METAR KATT 242051Z AUTO 16006KT 10SM FEW050 34/22 A3008 RMK AO2 SLP169 T03390217 58016
Pression 30.03 pouce
Visibilité 10.0 Miles terrestres
Nuages Peu 5000 ft
indice de chaleur 98 ° F
Point de rosée 72 ° F
Humidité 54%
Précipitations 0.00 pouce
Profondeur de la couche neigeuse Non disponible.
7:03 AM 8:02 PM
Lune gibbeuse décroissante, 53% visible
METAR KATT 242051Z AUTO 16006KT 10SM FEW050 34/22 A3008 RMK AO2 SLP169 T03390217 58016

10-Day Weather Forecast

Almanac

Astronomie

Aug. 24, 2016 Lever Coucher
Temps réel
Crépuscule civil
Crépuscule nautique
Crépuscule astronomique
Lune
Durée de lumière visible
Longueur du jour
Tomorrow will be .
, % of the Moon is Illuminated

Extrêmes aujourd'hui

State Highs State Lows

Community

WunderPhotos

Upload Photos

1,934,719 Photos téléchargées !

WunderBlog® & News

Nearby

Qualité de l'air

  Qualité de l'air Indice de la qualité de l'air Polluant
Not available.

Épaisseur de neige

Station Depth Altitude

Activité sismique

Ville Distance Mag. Time & Date
Minimum magnitude displayed is 2.5.

Températures des eaux côtières

Lieu Température

Stations

Stations météo à proximité

Emplacement de la station Température Refroidissement éolien Point de rosée Humidité Vent Precip. Alt. Mise à jour Type
                   

Watches & Warnings

There are currently no watches in effect.